createdAt,value
2023-04-29T00:02:16.708Z,17.83
2023-04-29T00:04:43.530Z,17.10
2023-04-29T00:07:19.064Z,17.17
2023-04-29T00:09:45.128Z,17.73
2023-04-29T00:12:11.736Z,15.90
2023-04-29T00:14:37.904Z,17.40
2023-04-29T00:17:04.373Z,19.57
2023-04-29T00:19:30.718Z,16.47
2023-04-29T00:21:57.119Z,17.30
2023-04-29T00:24:23.222Z,16.07
2023-04-29T00:26:49.653Z,16.97
2023-04-29T00:29:16.012Z,14.27
2023-04-29T00:31:42.345Z,17.63
2023-04-29T00:34:08.450Z,16.60
2023-04-29T00:36:34.791Z,15.17
2023-04-29T00:39:00.798Z,18.60
2023-04-29T00:41:27.203Z,19.17
2023-04-29T00:43:53.286Z,16.63
2023-04-29T00:46:19.748Z,15.20
2023-04-29T00:48:46.125Z,13.93
2023-04-29T00:51:13.132Z,11.70
2023-04-29T00:53:39.271Z,14.87
2023-04-29T00:56:06.835Z,10.77
2023-04-29T00:58:34.661Z,12.90
2023-04-29T01:01:03.082Z,12.60
2023-04-29T01:03:32.612Z,13.77
2023-04-29T01:06:11.182Z,13.43
2023-04-29T01:09:05.591Z,10.07
2023-04-29T01:11:41.921Z,15.07
2023-04-29T01:14:08.347Z,14.93
2023-04-29T01:16:57.580Z,16.90
2023-04-29T01:19:36.028Z,15.57
2023-04-29T01:22:02.495Z,12.67
2023-04-29T01:24:29.573Z,11.53
2023-04-29T01:27:10.007Z,9.70
2023-04-29T01:30:08.110Z,15.90
2023-04-29T01:33:19.471Z,9.60
2023-04-29T01:36:08.618Z,12.33
2023-04-29T01:38:35.476Z,14.23
2023-04-29T01:41:13.723Z,10.03
2023-04-29T01:43:42.371Z,12.97
2023-04-29T01:46:20.735Z,12.63
2023-04-29T01:48:53.421Z,16.83
2023-04-29T01:51:19.628Z,12.33
2023-04-29T01:53:45.999Z,9.90
2023-04-29T01:56:12.136Z,12.10
2023-04-29T01:58:57.158Z,12.57
2023-04-29T02:01:26.080Z,15.20
2023-04-29T02:03:52.832Z,9.77
2023-04-29T02:06:19.367Z,10.77
2023-04-29T02:08:49.513Z,12.87
2023-04-29T02:11:16.410Z,14.80
2023-04-29T02:13:42.910Z,12.83
2023-04-29T02:16:12.403Z,14.13
2023-04-29T02:18:59.043Z,12.13
2023-04-29T02:21:26.400Z,14.83
2023-04-29T02:23:53.782Z,10.87
2023-04-29T02:26:23.064Z,10.77
2023-04-29T02:28:49.859Z,9.63
2023-04-29T02:31:15.972Z,11.87
2023-04-29T02:33:44.651Z,11.80
2023-04-29T02:36:10.761Z,15.17
2023-04-29T02:38:37.127Z,8.87
2023-04-29T02:41:03.184Z,10.93
2023-04-29T02:43:32.436Z,15.27
2023-04-29T02:45:59.536Z,15.23
2023-04-29T02:48:26.430Z,11.93
2023-04-29T02:50:52.680Z,16.07
2023-04-29T02:53:20.272Z,16.97
2023-04-29T02:55:46.512Z,12.30
2023-04-29T02:58:12.929Z,14.40
2023-04-29T03:00:41.369Z,14.37
2023-04-29T03:03:07.835Z,14.23
2023-04-29T03:05:37.208Z,13.50
2023-04-29T03:08:04.068Z,17.30
2023-04-29T03:10:30.539Z,19.13
2023-04-29T03:12:57.030Z,14.40
2023-04-29T03:15:23.182Z,19.57
2023-04-29T03:17:50.335Z,14.73
2023-04-29T03:20:16.468Z,14.57
2023-04-29T03:22:42.868Z,16.20
2023-04-29T03:25:09.851Z,16.10
2023-04-29T03:27:38.274Z,11.80
2023-04-29T03:30:06.226Z,17.13
2023-04-29T03:32:33.121Z,15.93
2023-04-29T03:34:59.802Z,15.97
2023-04-29T03:37:37.331Z,19.00
2023-04-29T03:40:18.545Z,15.20
2023-04-29T03:42:45.294Z,14.87
2023-04-29T03:45:14.326Z,15.47
2023-04-29T03:47:40.860Z,15.67
2023-04-29T03:50:07.718Z,16.03
2023-04-29T03:52:35.859Z,16.93
2023-04-29T03:55:06.548Z,16.57
2023-04-29T03:57:33.079Z,13.13
2023-04-29T03:59:59.218Z,15.17
2023-04-29T04:02:25.906Z,15.17
2023-04-29T04:04:54.679Z,13.27
2023-04-29T04:07:21.215Z,11.80
2023-04-29T04:10:22.364Z,15.43
2023-04-29T04:12:48.908Z,13.47
2023-04-29T04:15:16.345Z,11.87
2023-04-29T04:17:42.783Z,14.57
2023-04-29T04:20:09.433Z,12.80
2023-04-29T04:22:36.164Z,14.07
2023-04-29T04:25:13.294Z,15.37
2023-04-29T04:27:40.395Z,14.70
2023-04-29T04:30:10.969Z,12.30
2023-04-29T04:32:39.215Z,16.03
2023-04-29T04:35:06.944Z,14.37
2023-04-29T04:37:33.311Z,16.27
2023-04-29T04:40:00.603Z,15.37
2023-04-29T04:42:27.179Z,14.57
2023-04-29T04:44:56.942Z,13.97
2023-04-29T04:47:41.665Z,13.03
2023-04-29T04:50:21.294Z,12.47
2023-04-29T04:52:49.422Z,15.80
2023-04-29T04:55:28.909Z,13.67
2023-04-29T04:57:56.141Z,17.93
2023-04-29T05:00:22.340Z,16.90
2023-04-29T05:02:49.089Z,14.97
2023-04-29T05:05:15.465Z,13.53
2023-04-29T05:07:43.165Z,12.33
2023-04-29T05:10:10.487Z,15.80
2023-04-29T05:12:45.962Z,14.30
2023-04-29T05:15:14.277Z,16.17
2023-04-29T05:17:42.437Z,13.53
2023-04-29T05:20:09.034Z,14.53
2023-04-29T05:22:35.613Z,13.07
2023-04-29T05:25:02.144Z,10.97
2023-04-29T05:27:29.966Z,13.07
2023-04-29T05:29:56.376Z,14.63
2023-04-29T05:32:23.047Z,10.40
2023-04-29T05:34:49.934Z,12.77
2023-04-29T05:37:17.168Z,14.70
2023-04-29T05:39:59.655Z,13.93
2023-04-29T05:42:26.567Z,12.80
2023-04-29T05:44:53.024Z,17.57
2023-04-29T05:47:38.179Z,15.63
2023-04-29T05:50:04.978Z,16.80
2023-04-29T05:52:31.454Z,16.07
2023-04-29T05:54:58.174Z,13.57
2023-04-29T05:57:24.706Z,12.40
2023-04-29T05:59:54.636Z,12.63
2023-04-29T06:02:21.818Z,14.53
2023-04-29T06:04:48.720Z,12.10
2023-04-29T06:07:48.197Z,16.77
2023-04-29T06:10:32.568Z,11.83
2023-04-29T06:12:59.304Z,15.27
2023-04-29T06:15:25.627Z,13.07
2023-04-29T06:17:52.998Z,12.27
2023-04-29T06:20:19.508Z,11.07
2023-04-29T06:22:46.806Z,14.43
2023-04-29T06:25:13.505Z,12.30
2023-04-29T06:27:46.016Z,13.00
2023-04-29T06:30:12.761Z,15.57
2023-04-29T06:32:40.244Z,13.60
2023-04-29T06:35:07.360Z,13.97
2023-04-29T06:37:52.626Z,18.07
2023-04-29T06:40:36.764Z,17.83
2023-04-29T06:43:08.042Z,14.03
2023-04-29T06:45:34.695Z,17.33
2023-04-29T06:48:06.856Z,11.83
2023-04-29T06:50:38.635Z,10.87
2023-04-29T06:53:06.864Z,13.03
2023-04-29T06:55:35.108Z,12.33
2023-04-29T06:58:03.816Z,10.43
2023-04-29T07:00:30.985Z,15.23
2023-04-29T07:02:57.937Z,13.50
2023-04-29T07:05:24.565Z,13.13
2023-04-29T07:07:51.127Z,15.53
2023-04-29T07:10:17.873Z,11.80
2023-04-29T07:12:44.421Z,13.30
2023-04-29T07:15:10.822Z,12.37
2023-04-29T07:17:37.556Z,11.80
2023-04-29T07:20:04.797Z,14.07
2023-04-29T07:22:31.428Z,12.33
2023-04-29T07:24:57.763Z,10.57
2023-04-29T07:27:24.928Z,12.00
2023-04-29T07:29:51.951Z,15.37
2023-04-29T07:32:18.556Z,13.07
2023-04-29T07:34:44.898Z,14.60
2023-04-29T07:37:11.699Z,15.57
2023-04-29T07:39:37.954Z,14.37
2023-04-29T07:42:04.636Z,10.60
2023-04-29T07:44:31.291Z,11.90
2023-04-29T07:46:58.469Z,11.90
2023-04-29T07:49:25.750Z,10.87
2023-04-29T07:51:52.718Z,11.23
2023-04-29T07:54:19.235Z,14.23
2023-04-29T07:56:45.924Z,9.73
2023-04-29T07:59:12.124Z,18.90
2023-04-29T08:01:40.848Z,16.00
2023-04-29T08:04:07.801Z,11.43
2023-04-29T08:06:42.268Z,10.30
2023-04-29T08:09:11.115Z,12.02
2023-04-29T08:11:41.046Z,9.45
2023-04-29T08:14:08.062Z,10.82
2023-04-29T08:16:35.178Z,10.77
2023-04-29T08:19:01.446Z,13.27
2023-04-29T08:21:27.944Z,9.32
2023-04-29T08:23:54.937Z,10.02
2023-04-29T08:26:23.156Z,12.68
2023-04-29T08:28:50.254Z,12.50
2023-04-29T08:31:20.830Z,13.77
2023-04-29T08:33:47.949Z,9.55
2023-04-29T08:36:14.379Z,10.05
2023-04-29T08:38:40.699Z,11.20
2023-04-29T08:41:11.207Z,9.60
2023-04-29T08:43:39.753Z,10.43
2023-04-29T08:46:07.129Z,10.65
2023-04-29T08:48:34.856Z,10.23
2023-04-29T08:51:01.730Z,11.32
2023-04-29T08:53:28.048Z,7.40
2023-04-29T08:55:56.902Z,10.30
2023-04-29T08:58:25.691Z,8.63
2023-04-29T09:00:52.359Z,10.13
2023-04-29T09:03:26.574Z,14.70
2023-04-29T09:05:54.849Z,10.82
2023-04-29T09:08:23.252Z,12.02
2023-04-29T09:10:52.043Z,10.95
2023-04-29T09:13:29.824Z,8.52
2023-04-29T09:15:57.090Z,11.43
2023-04-29T09:18:42.017Z,10.70
2023-04-29T09:21:21.645Z,10.70
2023-04-29T09:23:51.375Z,7.43
2023-04-29T09:26:17.764Z,16.35
2023-04-29T09:28:44.468Z,11.02
2023-04-29T09:31:11.770Z,10.40
2023-04-29T09:33:58.553Z,7.28
2023-04-29T09:36:48.216Z,6.85
2023-04-29T09:39:22.543Z,7.27
2023-04-29T09:41:52.374Z,5.40
2023-04-29T09:44:27.479Z,6.83
2023-04-29T09:47:02.042Z,8.00
2023-04-29T09:49:36.493Z,6.53
2023-04-29T09:52:05.268Z,8.67
2023-04-29T09:54:33.498Z,7.83
2023-04-29T09:57:05.357Z,9.53
2023-04-29T09:59:35.397Z,7.60
2023-04-29T10:02:09.571Z,7.17
2023-04-29T10:04:40.256Z,7.83
2023-04-29T10:07:08.832Z,6.70
2023-04-29T10:09:39.109Z,8.33
2023-04-29T10:12:07.074Z,8.87
2023-04-29T10:14:43.110Z,6.50
2023-04-29T10:17:38.748Z,7.10
2023-04-29T10:20:06.157Z,7.43
2023-04-29T10:22:41.822Z,7.13
2023-04-29T10:25:10.563Z,7.67
2023-04-29T10:27:38.418Z,8.73
2023-04-29T10:30:08.868Z,8.80
2023-04-29T10:32:49.760Z,7.67
2023-04-29T10:35:19.344Z,10.10
2023-04-29T10:37:47.860Z,6.70
2023-04-29T10:40:20.481Z,8.40
2023-04-29T10:42:51.849Z,7.17
2023-04-29T10:45:32.047Z,9.27
2023-04-29T10:48:11.182Z,10.70
2023-04-29T10:50:46.696Z,8.40
2023-04-29T10:53:14.420Z,9.93
2023-04-29T10:55:41.679Z,10.67
2023-04-29T10:58:45.819Z,9.30
2023-04-29T11:01:16.784Z,10.38
2023-04-29T11:04:01.065Z,9.63
2023-04-29T11:06:34.213Z,8.80
2023-04-29T11:09:01.908Z,10.68
2023-04-29T11:12:07.413Z,12.15
2023-04-29T11:14:36.260Z,8.68
2023-04-29T11:17:12.674Z,10.70
2023-04-29T11:19:49.619Z,10.07
2023-04-29T11:22:20.446Z,11.85
2023-04-29T11:25:03.312Z,10.27
2023-04-29T11:27:34.976Z,11.70
2023-04-29T11:30:04.348Z,10.87
2023-04-29T11:32:32.370Z,11.37
2023-04-29T11:35:12.141Z,13.38
2023-04-29T11:37:39.861Z,12.20
2023-04-29T11:40:07.269Z,10.30
2023-04-29T11:42:42.202Z,12.67
2023-04-29T11:45:09.176Z,14.60
2023-04-29T11:47:35.761Z,10.47
2023-04-29T11:50:07.357Z,10.17
2023-04-29T11:52:38.861Z,11.20
2023-04-29T11:55:08.268Z,10.07
2023-04-29T11:57:35.640Z,10.98
2023-04-29T12:00:03.665Z,10.18
2023-04-29T12:02:35.004Z,10.77
2023-04-29T12:05:07.534Z,8.93
2023-04-29T12:07:35.685Z,11.50
2023-04-29T12:10:02.515Z,9.63
2023-04-29T12:12:30.946Z,9.25
2023-04-29T12:14:57.693Z,8.05
2023-04-29T12:17:24.024Z,7.40
2023-04-29T12:19:50.646Z,9.05
2023-04-29T12:22:19.241Z,8.80
2023-04-29T12:24:46.346Z,6.95
2023-04-29T12:27:12.540Z,8.55
2023-04-29T12:29:41.861Z,8.55
2023-04-29T12:32:15.954Z,7.72
2023-04-29T12:34:42.306Z,7.82
2023-04-29T12:37:09.147Z,6.25
2023-04-29T12:39:35.754Z,6.80
2023-04-29T12:42:02.332Z,6.55
2023-04-29T12:44:40.037Z,6.03
2023-04-29T12:47:10.764Z,5.30
2023-04-29T12:49:37.844Z,4.60
2023-04-29T12:52:05.504Z,4.40
2023-04-29T12:54:32.112Z,5.00
2023-04-29T12:56:58.348Z,5.22
2023-04-29T12:59:24.800Z,4.93
2023-04-29T13:01:50.886Z,5.55
2023-04-29T13:04:17.488Z,4.97
2023-04-29T13:06:43.666Z,6.43
2023-04-29T13:09:14.928Z,5.60
2023-04-29T13:11:44.858Z,7.65
2023-04-29T13:14:11.459Z,7.00
2023-04-29T13:16:38.110Z,6.10
2023-04-29T13:19:17.098Z,4.25
2023-04-29T13:21:51.501Z,1.30
2023-04-29T13:24:19.521Z,1.13
2023-04-29T13:26:48.017Z,2.03
2023-04-29T13:29:15.808Z,2.23
2023-04-29T13:31:43.497Z,6.43
2023-04-29T13:34:10.282Z,2.90
2023-04-29T13:36:36.754Z,2.57
2023-04-29T13:39:03.697Z,2.03
2023-04-29T13:41:33.613Z,2.47
2023-04-29T13:44:02.265Z,1.23
2023-04-29T13:46:30.339Z,3.13
2023-04-29T13:49:22.781Z,3.03
2023-04-29T13:57:30.241Z,2.17
2023-04-29T14:04:32.235Z,4.37
2023-04-29T14:06:59.232Z,4.33
2023-04-29T14:09:26.168Z,3.57
2023-04-29T14:11:53.324Z,4.37
2023-04-29T14:14:19.866Z,4.47
2023-04-29T14:16:46.921Z,4.43
2023-04-29T14:19:13.337Z,2.90
2023-04-29T14:21:39.984Z,3.33
2023-04-29T14:24:06.498Z,2.97
2023-04-29T14:26:32.772Z,3.23
2023-04-29T14:28:59.673Z,3.50
2023-04-29T14:31:28.460Z,4.03
2023-04-29T14:33:58.825Z,4.70
2023-04-29T14:36:25.977Z,4.90
2023-04-29T14:38:52.969Z,5.87
2023-04-29T14:41:20.848Z,5.53
2023-04-29T14:43:47.419Z,4.83
2023-04-29T14:46:13.827Z,6.50
2023-04-29T14:48:40.333Z,6.33
2023-04-29T14:51:07.863Z,4.83
2023-04-29T14:53:34.446Z,5.23
2023-04-29T14:56:03.948Z,4.70
2023-04-29T14:58:30.616Z,4.20
2023-04-29T15:00:56.787Z,3.77
2023-04-29T15:03:23.437Z,5.57
2023-04-29T15:05:50.520Z,5.23
2023-04-29T15:08:17.732Z,5.00
2023-04-29T15:10:46.678Z,6.37
2023-04-29T15:13:13.171Z,4.83
2023-04-29T15:15:39.555Z,4.43
2023-04-29T15:18:07.871Z,5.67
2023-04-29T15:20:37.530Z,4.57
2023-04-29T15:23:05.577Z,4.67
2023-04-29T15:25:33.900Z,5.03
2023-04-29T15:28:01.535Z,4.90
2023-04-29T15:30:28.036Z,4.70
2023-04-29T15:32:55.151Z,5.10
2023-04-29T15:35:22.012Z,8.70
2023-04-29T15:37:50.009Z,6.77
2023-04-29T15:40:16.953Z,10.07
2023-04-29T15:42:43.678Z,8.77
2023-04-29T15:45:10.597Z,7.70
2023-04-29T15:47:37.520Z,7.67
2023-04-29T15:50:04.167Z,8.00
2023-04-29T15:52:30.955Z,5.77
2023-04-29T15:54:57.699Z,5.07
2023-04-29T15:57:25.288Z,5.47
2023-04-29T15:59:51.916Z,6.93
2023-04-29T16:02:19.698Z,6.47
2023-04-29T16:04:45.991Z,7.77
2023-04-29T16:07:12.683Z,8.30
2023-04-29T16:09:38.896Z,6.40
2023-04-29T16:12:05.806Z,7.03
2023-04-29T16:14:32.052Z,6.73
2023-04-29T16:16:59.844Z,7.97
2023-04-29T16:19:26.278Z,7.27
2023-04-29T16:21:52.722Z,7.70
2023-04-29T16:24:18.825Z,7.73
2023-04-29T16:26:47.317Z,9.30
2023-04-29T16:29:13.631Z,8.43
2023-04-29T16:31:40.994Z,10.07
2023-04-29T16:34:07.158Z,9.07
2023-04-29T16:36:33.797Z,11.57
2023-04-29T16:39:00.257Z,8.70
2023-04-29T16:41:26.812Z,8.97
2023-04-29T16:43:53.512Z,12.13
2023-04-29T16:46:20.190Z,11.97
2023-04-29T16:48:46.692Z,11.53
2023-04-29T16:51:13.263Z,10.97
2023-04-29T16:53:39.518Z,10.80
2023-04-29T16:56:06.624Z,12.37
2023-04-29T16:58:32.922Z,15.23
2023-04-29T17:00:59.830Z,15.47
2023-04-29T17:03:26.408Z,14.83
2023-04-29T17:05:53.179Z,15.67
2023-04-29T17:08:21.516Z,14.13
2023-04-29T17:10:48.200Z,14.37
2023-04-29T17:13:14.775Z,16.30
2023-04-29T17:15:41.320Z,21.13
2023-04-29T17:18:07.661Z,18.57
2023-04-29T17:20:34.498Z,19.67
2023-04-29T17:23:01.134Z,19.63
2023-04-29T17:25:28.148Z,21.03
2023-04-29T17:27:54.525Z,22.77
2023-04-29T17:30:21.274Z,22.87
2023-04-29T17:32:48.998Z,26.83
2023-04-29T17:35:15.642Z,23.53
2023-04-29T17:37:41.899Z,26.30
2023-04-29T17:40:09.189Z,29.07
2023-04-29T17:42:35.775Z,29.87
2023-04-29T17:45:02.814Z,37.00
2023-04-29T17:47:29.194Z,36.53
2023-04-29T17:49:59.534Z,35.80
2023-04-29T17:52:28.670Z,37.63
2023-04-29T17:54:55.238Z,34.33
2023-04-29T17:57:21.746Z,35.93
2023-04-29T17:59:48.439Z,34.87
2023-04-29T18:02:15.138Z,39.13
2023-04-29T18:04:42.035Z,40.50
2023-04-29T18:07:08.493Z,39.93
2023-04-29T18:09:35.563Z,37.33
2023-04-29T18:12:02.417Z,36.40
2023-04-29T18:14:30.364Z,37.80
2023-04-29T18:16:59.369Z,37.30
2023-04-29T18:19:27.188Z,33.67
2023-04-29T18:21:57.533Z,35.63
2023-04-29T18:24:30.467Z,36.23
2023-04-29T18:26:57.269Z,34.60
2023-04-29T18:29:24.151Z,33.27
2023-04-29T18:31:52.088Z,33.80
2023-04-29T18:34:18.811Z,35.63
2023-04-29T18:36:45.368Z,35.27
2023-04-29T18:39:12.113Z,33.30
2023-04-29T18:41:38.933Z,33.67
2023-04-29T18:44:05.637Z,28.77
2023-04-29T18:46:35.571Z,26.30
2023-04-29T18:49:03.057Z,27.17
2023-04-29T18:51:30.608Z,26.17
2023-04-29T18:53:57.346Z,28.87
2023-04-29T18:56:25.328Z,25.07
2023-04-29T18:58:52.039Z,25.20
2023-04-29T19:01:18.995Z,24.63
2023-04-29T19:03:45.902Z,20.37
2023-04-29T19:06:12.308Z,22.10
2023-04-29T19:08:38.853Z,21.23
2023-04-29T19:11:05.611Z,21.03
2023-04-29T19:13:32.302Z,22.57
2023-04-29T19:15:58.923Z,22.10
2023-04-29T19:18:25.730Z,19.17
2023-04-29T19:20:52.919Z,15.87
2023-04-29T19:23:20.020Z,18.63
2023-04-29T19:25:46.359Z,15.97
2023-04-29T19:28:13.090Z,14.63
2023-04-29T19:30:39.507Z,14.37
2023-04-29T19:33:06.184Z,13.17
2023-04-29T19:35:32.806Z,11.97
2023-04-29T19:37:59.368Z,12.80
2023-04-29T19:40:25.781Z,14.53
2023-04-29T19:42:52.618Z,13.17
2023-04-29T19:45:19.059Z,15.63
2023-04-29T19:47:47.943Z,11.70
2023-04-29T19:50:15.927Z,10.47
2023-04-29T19:52:44.460Z,10.67
2023-04-29T19:55:11.062Z,13.07
2023-04-29T19:57:38.110Z,11.40
2023-04-29T20:00:05.475Z,14.93
2023-04-29T20:02:33.244Z,11.00
2023-04-29T20:04:59.834Z,12.73
2023-04-29T20:07:26.498Z,11.93
2023-04-29T20:09:55.557Z,12.87
2023-04-29T20:12:22.556Z,13.70
2023-04-29T20:14:49.029Z,11.00
2023-04-29T20:17:17.050Z,15.80
2023-04-29T20:19:43.781Z,14.07
2023-04-29T20:22:10.603Z,15.43
2023-04-29T20:24:36.727Z,14.50
2023-04-29T20:27:03.789Z,15.17
2023-04-29T20:29:30.002Z,11.47
2023-04-29T20:31:56.706Z,10.97
2023-04-29T20:34:23.098Z,12.00
2023-04-29T20:36:49.789Z,13.33
2023-04-29T20:39:17.295Z,11.43
2023-04-29T20:41:44.004Z,10.70
2023-04-29T20:44:10.693Z,10.23
2023-04-29T20:46:37.412Z,11.20
2023-04-29T20:49:04.464Z,10.10
2023-04-29T20:51:32.211Z,9.50
2023-04-29T20:53:58.746Z,10.13
2023-04-29T20:56:25.694Z,11.87
2023-04-29T20:58:52.123Z,10.57
2023-04-29T21:01:18.773Z,11.77
2023-04-29T21:03:45.154Z,11.17
2023-04-29T21:06:12.223Z,10.13
2023-04-29T21:08:38.829Z,9.83
2023-04-29T21:11:07.102Z,9.70
2023-04-29T21:13:33.290Z,14.53
2023-04-29T21:15:59.762Z,12.23
2023-04-29T21:18:25.950Z,11.73
2023-04-29T21:20:52.619Z,9.10
2023-04-29T21:23:18.811Z,10.07
2023-04-29T21:25:45.512Z,9.77
2023-04-29T21:28:11.710Z,10.83
2023-04-29T21:30:38.140Z,12.67
2023-04-29T21:33:04.449Z,11.57
2023-04-29T21:35:30.833Z,10.20
2023-04-29T21:37:56.972Z,8.37
2023-04-29T21:40:25.737Z,9.53
2023-04-29T21:42:54.438Z,8.20
2023-04-29T21:45:21.151Z,9.93
2023-04-29T21:47:47.901Z,9.17
2023-04-29T21:50:14.854Z,10.20
2023-04-29T21:52:41.428Z,11.73
2023-04-29T21:55:09.317Z,12.40
2023-04-29T21:57:43.377Z,10.67
2023-04-29T22:00:27.569Z,7.37
2023-04-29T22:02:53.844Z,10.43
2023-04-29T22:05:20.301Z,19.97
2023-04-29T22:07:46.564Z,11.60
2023-04-29T22:10:12.976Z,12.00
2023-04-29T22:12:39.111Z,11.33
2023-04-29T22:15:09.104Z,10.30
2023-04-29T22:17:40.365Z,11.17
2023-04-29T22:20:07.891Z,12.13
2023-04-29T22:22:33.988Z,11.27
2023-04-29T22:25:03.953Z,10.10
2023-04-29T22:27:30.993Z,12.10
2023-04-29T22:29:58.844Z,11.33
2023-04-29T22:32:25.186Z,14.33
2023-04-29T22:34:51.895Z,12.77
2023-04-29T22:37:18.059Z,10.10
2023-04-29T22:39:44.782Z,12.13
2023-04-29T22:42:10.902Z,12.73
2023-04-29T22:44:37.375Z,12.27
2023-04-29T22:47:03.530Z,12.57
2023-04-29T22:49:29.960Z,14.30
2023-04-29T22:51:56.059Z,11.80
2023-04-29T22:54:22.436Z,10.63
2023-04-29T22:56:48.617Z,14.27
2023-04-29T22:59:14.999Z,15.33
2023-04-29T23:01:41.115Z,16.53
2023-04-29T23:04:07.603Z,14.53
2023-04-29T23:06:34.499Z,12.80
2023-04-29T23:09:01.208Z,13.77
2023-04-29T23:11:27.446Z,14.13
2023-04-29T23:13:54.145Z,15.27
2023-04-29T23:16:20.262Z,13.33
2023-04-29T23:18:46.833Z,13.80
2023-04-29T23:21:13.063Z,18.00
2023-04-29T23:23:39.465Z,12.93
2023-04-29T23:26:05.601Z,14.40
2023-04-29T23:28:32.093Z,12.57
2023-04-29T23:30:58.214Z,11.97
2023-04-29T23:33:24.711Z,13.50
2023-04-29T23:35:51.757Z,14.57
2023-04-29T23:38:19.203Z,12.13
2023-04-29T23:40:46.125Z,13.60
2023-04-29T23:43:15.854Z,13.93
2023-04-29T23:45:45.378Z,18.87
2023-04-29T23:48:11.942Z,11.80
2023-04-29T23:50:38.091Z,12.90
2023-04-29T23:53:04.467Z,15.60
2023-04-29T23:55:30.869Z,16.03
2023-04-29T23:57:57.314Z,16.30
